Time;durP1;ratioP1;P1;durP2;ratioP2;P2;SDS_P1;SDS_P2;PMS_P1;PMS_P2;Temp;Humidity;BMP_temperature;BMP_pressure;BME280_temperature;BME280_humidity;BME280_pressure;Samples;Min_cycle;Max_cycle;Signal;HPM_P1;HPM_P2
2022/05/14 00:34:10;;;;;;;23.55;8.60;;;;;;;14.04;100.00;100869.84;1772770;79;22007;-84
2022/05/14 00:36:36;;;;;;;20.50;8.55;;;;;;;14.06;100.00;100875.80;1727363;83;21121;-83
2022/05/14 00:39:03;;;;;;;22.52;8.58;;;;;;;14.14;100.00;100877.11;1727388;83;21566;-83
2022/05/14 00:41:29;;;;;;;24.20;9.25;;;;;;;14.19;100.00;100877.11;1749284;81;21015;-83
2022/05/14 00:43:59;;;;;;;18.73;8.88;;;;;;;14.24;100.00;100875.73;1734326;81;20945;-84
2022/05/14 00:46:46;;;;;;;15.93;6.58;;;;;;;14.30;100.00;100866.49;1699045;83;22448;-86
2022/05/14 00:49:13;;;;;;;28.60;8.53;;;;;;;14.32;100.00;100863.48;1696888;83;21225;-86
2022/05/14 00:51:43;;;;;;;28.30;8.15;;;;;;;14.24;100.00;100862.73;1700040;83;21905;-86
2022/05/14 00:54:14;;;;;;;16.55;8.05;;;;;;;14.20;100.00;100863.81;1701322;84;21359;-86
2022/05/14 00:56:46;;;;;;;19.70;7.70;;;;;;;14.25;100.00;100888.19;1701599;84;21182;-86
2022/05/14 00:59:18;;;;;;;21.85;7.90;;;;;;;14.26;100.00;100896.58;1701602;83;21082;-87
2022/05/14 01:01:45;;;;;;;21.73;7.55;;;;;;;14.30;100.00;100903.09;1695173;84;21085;-87
2022/05/14 01:04:12;;;;;;;20.02;7.12;;;;;;;14.30;100.00;100893.60;1701468;83;21120;-88
2022/05/14 01:06:43;;;;;;;17.73;7.20;;;;;;;14.31;100.00;100880.30;1701601;83;20981;-89
2022/05/14 01:09:09;;;;;;;13.30;5.78;;;;;;;14.35;100.00;100872.42;1698356;83;21057;-88
2022/05/14 01:11:38;;;;;;;16.45;5.70;;;;;;;14.34;100.00;100861.31;1701552;83;21054;-88
2022/05/14 01:14:04;;;;;;;19.57;5.97;;;;;;;14.27;100.00;100853.49;1701557;83;21041;-88
2022/05/14 01:16:31;;;;;;;15.80;5.00;;;;;;;14.26;100.00;100841.01;1701689;83;21985;-89
2022/05/14 01:18:58;;;;;;;12.93;4.35;;;;;;;14.26;100.00;100837.49;1701269;84;21077;-89
2022/05/14 01:21:41;;;;;;;15.28;5.10;;;;;;;14.25;100.00;100835.88;1701247;83;21116;-90
2022/05/14 01:27:15;;;;;;;13.20;4.20;;;;;;;14.21;100.00;100845.67;1688593;83;21050;-88
2022/05/14 01:29:42;;;;;;;12.88;4.35;;;;;;;14.16;100.00;100831.58;1701475;83;21111;-87
2022/05/14 01:32:09;;;;;;;12.70;4.33;;;;;;;14.08;100.00;100825.38;1699812;83;21534;-87
2022/05/14 01:34:35;;;;;;;9.98;4.00;;;;;;;13.95;100.00;100820.02;1679632;85;21130;-87
2022/05/14 01:37:03;;;;;;;16.70;4.92;;;;;;;13.84;100.00;100822.48;1679656;85;21051;-87
2022/05/14 01:39:29;;;;;;;10.20;3.80;;;;;;;13.81;100.00;100823.84;1679527;85;21128;-87
2022/05/14 01:41:56;;;;;;;12.63;4.03;;;;;;;13.82;100.00;100819.23;1679677;85;21082;-87
2022/05/14 01:44:22;;;;;;;12.85;4.95;;;;;;;13.82;100.00;100815.17;1715156;83;20984;-87
2022/05/14 01:46:49;;;;;;;14.83;4.17;;;;;;;13.76;100.00;100810.31;1718078;83;21093;-89
2022/05/14 01:49:15;;;;;;;11.65;4.30;;;;;;;13.75;100.00;100807.34;1718767;83;21049;-90
2022/05/14 01:51:41;;;;;;;13.93;4.00;;;;;;;13.70;100.00;100797.06;1719452;83;21099;-88
2022/05/14 01:54:08;;;;;;;10.43;3.98;;;;;;;13.53;100.00;100790.09;1718923;83;21023;-87
2022/05/14 01:56:34;;;;;;;10.15;4.17;;;;;;;13.49;100.00;100797.66;1717548;83;21069;-88
2022/05/14 01:59:00;;;;;;;12.55;4.40;;;;;;;13.51;100.00;100781.97;1687443;83;21010;-87
2022/05/14 02:01:30;;;;;;;12.55;4.12;;;;;;;13.36;100.00;100776.05;1718589;83;21599;-87
2022/05/14 02:04:06;;;;;;;11.88;4.25;;;;;;;13.25;100.00;100794.19;1718669;83;20999;-85
2022/05/14 02:06:33;;;;;;;11.48;3.90;;;;;;;13.25;100.00;100791.48;1714588;83;21047;-85
2022/05/14 02:09:01;;;;;;;14.60;3.85;;;;;;;13.18;100.00;100763.86;1718732;83;21050;-85
2022/05/14 02:11:28;;;;;;;16.27;4.72;;;;;;;12.95;100.00;100749.00;1718957;83;21022;-84
2022/05/14 02:13:55;;;;;;;17.67;4.40;;;;;;;12.83;100.00;100756.04;1718894;83;21105;-84
2022/05/14 02:16:21;;;;;;;17.02;4.83;;;;;;;12.89;100.00;100762.27;1714897;83;21015;-85
2022/05/14 02:18:48;;;;;;;10.45;4.25;;;;;;;12.93;100.00;100768.19;1719065;83;21039;-83
2022/05/14 02:21:15;;;;;;;17.82;4.17;;;;;;;12.96;100.00;100770.36;1719260;83;21527;-85
2022/05/14 02:23:41;;;;;;;8.83;3.95;;;;;;;12.91;100.00;100763.62;1719023;83;20975;-86
2022/05/14 02:26:11;;;;;;;10.58;3.37;;;;;;;12.76;100.00;100753.33;1719245;83;21018;-86
2022/05/14 02:28:40;;;;;;;11.40;4.10;;;;;;;12.66;100.00;100752.79;1719422;83;21495;-87
2022/05/14 02:31:07;;;;;;;11.43;4.87;;;;;;;12.59;100.00;100757.62;1719353;83;21779;-86
2022/05/14 02:33:33;;;;;;;9.80;3.90;;;;;;;12.61;100.00;100751.42;1723114;82;21001;-88
2022/05/14 02:36:00;;;;;;;12.23;4.00;;;;;;;12.62;100.00;100747.66;1727009;83;21030;-88
2022/05/14 02:38:30;;;;;;;10.90;3.52;;;;;;;12.63;100.00;100743.87;1726946;83;21575;-89
2022/05/14 02:40:54;;;;;;;11.30;3.72;;;;;;;12.58;100.00;100740.61;1726511;82;20972;-88
2022/05/14 02:43:20;;;;;;;16.07;4.30;;;;;;;12.52;100.00;100732.77;1727202;82;21130;-88
2022/05/14 02:45:47;;;;;;;9.85;4.45;;;;;;;12.46;100.00;100729.25;1726913;82;21555;-89
2022/05/14 02:48:13;;;;;;;11.50;3.98;;;;;;;12.42;100.00;100723.57;1726725;82;20952;-88
2022/05/14 02:50:39;;;;;;;9.55;4.20;;;;;;;12.41;100.00;100723.83;1727060;82;21460;-88
2022/05/14 02:53:06;;;;;;;11.90;4.40;;;;;;;12.36;100.00;100723.84;1727073;81;20993;-89
2022/05/14 02:55:32;;;;;;;9.53;3.95;;;;;;;12.34;100.00;100728.70;1726626;83;21894;-91
2022/05/14 02:57:58;;;;;;;9.93;4.08;;;;;;;12.28;100.00;100713.01;1726999;82;21417;-89
2022/05/14 03:00:24;;;;;;;10.00;3.52;;;;;;;12.38;100.00;100725.20;1727053;83;21059;-89
2022/05/14 03:02:51;;;;;;;9.70;3.60;;;;;;;12.40;100.00;100728.97;1727021;82;20972;-89
2022/05/14 03:05:22;;;;;;;10.00;3.58;;;;;;;12.38;100.00;100729.77;1727063;82;21019;-88
2022/05/14 03:07:48;;;;;;;8.83;3.70;;;;;;;12.37;100.00;100730.31;1726988;82;21023;-88
2022/05/14 03:10:16;;;;;;;11.15;4.05;;;;;;;12.36;100.00;100723.84;1727061;83;21034;-88
2022/05/14 03:12:41;;;;;;;10.08;3.83;;;;;;;12.38;100.00;100729.77;1727188;82;21523;-88
2022/05/14 03:15:10;;;;;;;9.63;3.60;;;;;;;12.36;100.00;100723.84;1727087;82;20967;-88
2022/05/14 03:17:36;;;;;;;7.45;3.05;;;;;;;12.35;100.00;100724.36;1727078;82;21086;-87
2022/05/14 03:20:08;;;;;;;11.45;3.08;;;;;;;12.33;100.00;100731.14;1726957;83;21920;-87
2022/05/14 03:22:36;;;;;;;9.03;3.10;;;;;;;12.28;100.00;100732.73;1711458;83;21113;-88
2022/05/14 03:25:04;;;;;;;6.75;3.17;;;;;;;12.25;100.00;100733.27;1711770;83;21056;-87
2022/05/14 03:27:30;;;;;;;8.10;3.17;;;;;;;12.24;100.00;100738.41;1711774;83;21090;-87
2022/05/14 03:29:56;;;;;;;10.40;3.35;;;;;;;12.24;100.00;100738.41;1711744;83;20979;-86
2022/05/14 03:32:24;;;;;;;5.12;3.08;;;;;;;12.30;100.00;100742.48;1711272;83;21996;-87
2022/05/14 03:34:54;;;;;;;10.20;3.02;;;;;;;12.34;100.00;100742.20;1707837;83;21508;-86
2022/05/14 03:37:19;;;;;;;7.50;3.27;;;;;;;12.37;100.00;100747.08;1706065;84;21142;-86
2022/05/14 03:39:45;;;;;;;13.35;3.92;;;;;;;12.39;100.00;100757.89;1706253;84;20892;-86
2022/05/14 03:42:11;;;;;;;11.50;3.20;;;;;;;12.48;100.00;100752.77;1706453;84;20893;-86
2022/05/14 03:44:37;;;;;;;8.25;3.35;;;;;;;12.54;100.00;100754.41;1706487;84;20976;-85
2022/05/14 03:47:03;;;;;;;8.43;3.33;;;;;;;12.57;100.00;100750.35;1706897;84;21046;-86
2022/05/14 03:49:29;;;;;;;7.55;3.10;;;;;;;12.59;100.00;100743.60;1706701;84;20983;-86
2022/05/14 03:51:55;;;;;;;8.53;3.12;;;;;;;12.65;100.00;100746.58;1706946;84;20939;-85
2022/05/14 03:54:21;;;;;;;7.25;3.33;;;;;;;12.67;100.00;100752.50;1706892;84;20905;-85
2022/05/14 03:56:46;;;;;;;6.05;2.80;;;;;;;12.67;100.00;100753.85;1706557;84;21143;-86
2022/05/14 03:59:13;;;;;;;5.95;2.70;;;;;;;12.74;100.00;100754.96;1706049;84;20885;-85
2022/05/14 04:01:39;;;;;;;14.20;3.33;;;;;;;12.82;100.00;100755.75;1706382;84;21029;-85
2022/05/14 04:04:05;;;;;;;7.37;2.62;;;;;;;12.86;100.00;100747.38;1681178;84;21028;-85
2022/05/14 04:06:31;;;;;;;7.80;2.60;;;;;;;12.93;100.00;100740.34;1706337;84;21087;-86
2022/05/14 04:08:59;;;;;;;6.03;2.47;;;;;;;12.94;100.00;100735.19;1706146;84;22010;-85
2022/05/14 04:11:25;;;;;;;9.13;3.00;;;;;;;12.99;100.00;100741.15;1706064;84;21007;-85
2022/05/14 04:13:51;;;;;;;7.28;2.70;;;;;;;13.01;100.00;100729.52;1706300;84;21024;-85
2022/05/14 04:16:17;;;;;;;8.28;2.62;;;;;;;13.08;100.00;100708.39;1682691;84;20880;-85
2022/05/14 04:18:43;;;;;;;8.85;2.65;;;;;;;13.21;100.00;100713.25;1709761;83;20845;-86
2022/05/14 04:21:09;;;;;;;10.75;2.70;;;;;;;13.26;100.00;100720.02;1721916;83;21878;-86
2022/05/14 04:23:35;;;;;;;4.10;2.20;;;;;;;13.34;100.00;100722.72;1721557;83;21035;-85
2022/05/14 04:26:02;;;;;;;6.12;2.35;;;;;;;13.36;100.00;100724.61;1721915;83;20987;-86
2022/05/14 04:28:28;;;;;;;7.20;2.60;;;;;;;13.33;100.00;100717.84;1721729;82;21421;-84
2022/05/14 04:30:54;;;;;;;7.87;2.40;;;;;;;13.42;100.00;100718.09;1721909;83;21019;-85
2022/05/14 04:33:23;;;;;;;8.60;2.72;;;;;;;13.58;100.00;100712.88;1721484;83;21495;-85
2022/05/14 04:35:49;;;;;;;7.35;2.50;;;;;;;13.86;100.00;100706.00;1725903;82;20995;-86
2022/05/14 04:38:15;;;;;;;6.28;2.60;;;;;;;13.86;100.00;100706.00;1727264;82;20982;-85
2022/05/14 04:40:41;;;;;;;9.00;2.85;;;;;;;13.86;100.00;100701.13;1727015;83;20939;-85
2022/05/14 04:43:11;;;;;;;9.43;2.80;;;;;;;13.72;100.00;100715.81;1710363;83;21035;-85
2022/05/14 04:45:38;;;;;;;8.25;2.42;;;;;;;13.76;100.00;100722.83;1726907;83;21496;-84
2022/05/14 04:48:06;;;;;;;6.90;2.72;;;;;;;13.82;100.00;100721.72;1726929;82;21108;-85
2022/05/14 04:50:32;;;;;;;6.70;2.20;;;;;;;13.87;100.00;100721.70;1727095;83;21007;-84
2022/05/14 04:52:59;;;;;;;6.40;2.55;;;;;;;13.98;100.00;100724.63;1726938;83;21034;-85
2022/05/14 04:55:25;;;;;;;4.10;2.15;;;;;;;13.98;100.00;100721.91;1726657;83;21495;-84
2022/05/14 04:57:51;;;;;;;5.55;2.33;;;;;;;13.90;100.00;100721.69;1704012;83;21072;-84
2022/05/14 05:00:18;;;;;;;4.78;2.20;;;;;;;13.90;100.00;100722.50;1703944;84;21529;-84
2022/05/14 05:05:30;;;;;;;11.15;2.58;;;;;;;13.97;100.00;100718.12;1703869;84;21626;-85
2022/05/14 05:07:58;;;;;;;6.20;2.40;;;;;;;13.96;100.00;100708.37;1704105;84;21058;-84
2022/05/14 05:10:24;;;;;;;9.45;2.50;;;;;;;14.02;100.00;100716.19;1704072;84;21809;-85
2022/05/14 05:12:50;;;;;;;7.60;2.17;;;;;;;14.10;100.00;100708.03;1703980;84;20971;-85
2022/05/14 05:15:16;;;;;;;6.40;2.67;;;;;;;14.16;100.00;100704.75;1704207;84;21046;-84
2022/05/14 05:17:42;;;;;;;5.00;2.50;;;;;;;14.15;100.00;100704.45;1704211;84;21512;-84
2022/05/14 05:20:10;;;;;;;5.35;2.20;;;;;;;14.18;100.00;100706.64;1704263;84;20881;-84
2022/05/14 05:22:37;;;;;;;4.87;2.08;;;;;;;14.27;100.00;100710.37;1717000;83;21068;-84
2022/05/14 05:25:06;;;;;;;9.10;2.95;;;;;;;14.26;100.00;100705.47;1726924;82;20991;-85
2022/05/14 05:27:32;;;;;;;4.60;2.10;;;;;;;14.26;100.00;100708.18;1727008;82;21066;-85
2022/05/14 05:29:58;;;;;;;6.40;2.27;;;;;;;14.37;100.00;100712.19;1727171;83;21070;-84
2022/05/14 05:32:24;;;;;;;4.62;2.22;;;;;;;14.41;100.00;100710.00;1726817;83;21074;-84
2022/05/14 05:34:51;;;;;;;6.92;2.58;;;;;;;14.55;100.00;100716.95;1709006;83;21092;-84
2022/05/14 05:37:17;;;;;;;5.62;2.27;;;;;;;14.74;100.00;100700.81;1723675;82;20980;-84
2022/05/14 05:39:43;;;;;;;9.50;2.40;;;;;;;14.74;100.00;100700.81;1724047;82;20955;-85
2022/05/14 05:42:09;;;;;;;6.97;2.22;;;;;;;14.86;100.00;100708.03;1705775;83;20967;-84
2022/05/14 05:44:35;;;;;;;5.70;1.90;;;;;;;15.01;100.00;100703.55;1723900;83;20991;-86
2022/05/14 05:47:06;;;;;;;6.05;2.30;;;;;;;15.03;100.00;100682.34;1724317;82;21161;-85
2022/05/14 05:49:35;;;;;;;4.33;2.22;;;;;;;15.17;100.00;100694.14;1723656;82;21035;-85
2022/05/14 05:52:01;;;;;;;6.00;2.35;;;;;;;15.31;100.00;100701.86;1724034;82;20959;-86
2022/05/14 05:57:11;;;;;;;5.50;2.12;;;;;;;15.36;100.00;100697.73;1723708;83;21426;-85
2022/05/14 05:59:37;;;;;;;12.70;2.55;;;;;;;15.37;100.00;100693.11;1705807;83;21075;-84
2022/05/14 06:02:04;;;;;;;5.92;2.08;;;;;;;15.41;100.00;100686.83;1723990;83;20980;-85
2022/05/14 06:04:30;;;;;;;6.62;2.17;;;;;;;15.48;100.00;100689.73;1723809;82;21055;-85
2022/05/14 06:06:56;;;;;;;6.00;2.70;;;;;;;15.49;100.00;100689.98;1723903;83;21528;-85
2022/05/14 06:09:26;;;;;;;6.90;2.17;;;;;;;15.52;100.00;100690.76;1723909;83;20982;-86
2022/05/14 06:11:52;;;;;;;6.08;2.40;;;;;;;15.51;100.00;100689.16;1723970;83;21915;-86
2022/05/14 06:14:18;;;;;;;3.92;1.90;;;;;;;15.43;100.00;100683.25;1723683;82;21050;-85
2022/05/14 06:16:45;;;;;;;6.03;2.35;;;;;;;15.37;100.00;100686.32;1724289;82;21007;-86
2022/05/14 06:19:11;;;;;;;5.45;2.42;;;;;;;15.31;100.00;100682.85;1723907;82;20996;-86
2022/05/14 06:21:39;;;;;;;5.72;2.12;;;;;;;15.22;100.00;100673.73;1723826;82;21064;-85
2022/05/14 06:24:08;;;;;;;6.75;2.20;;;;;;;15.22;100.00;100690.02;1723902;82;21178;-85
2022/05/14 06:26:34;;;;;;;5.85;2.10;;;;;;;15.20;100.00;100692.20;1723830;82;21483;-86
2022/05/14 06:29:00;;;;;;;6.17;2.40;;;;;;;15.30;100.00;100689.39;1723940;82;20952;-86
2022/05/14 06:31:27;;;;;;;7.67;1.98;;;;;;;15.30;100.00;100687.23;1723936;82;21039;-86
2022/05/14 06:33:53;;;;;;;5.42;2.50;;;;;;;15.38;100.00;100683.33;1723898;82;21039;-86
2022/05/14 06:36:20;;;;;;;6.28;2.45;;;;;;;15.37;100.00;100675.45;1715739;82;21077;-86
2022/05/14 06:38:46;;;;;;;7.15;2.80;;;;;;;15.39;100.00;100675.98;1713798;83;21517;-87
2022/05/14 06:41:15;;;;;;;6.15;2.65;;;;;;;15.52;100.00;100674.46;1713948;83;20988;-86
2022/05/14 06:43:41;;;;;;;6.47;2.70;;;;;;;15.59;100.00;100675.73;1713789;82;20961;-87
2022/05/14 06:46:08;;;;;;;9.95;2.65;;;;;;;15.62;100.00;100668.36;1714234;83;21089;-87
2022/05/14 06:48:34;;;;;;;7.80;2.67;;;;;;;15.68;100.00;100662.34;1713820;82;21934;-85
2022/05/14 06:51:05;;;;;;;5.00;1.92;;;;;;;15.69;100.00;100658.52;1714280;82;20885;-84
2022/05/14 06:53:34;;;;;;;8.95;2.52;;;;;;;15.66;100.00;100665.86;1663648;85;20979;-86
2022/05/14 06:56:01;;;;;;;5.30;2.22;;;;;;;15.60;100.00;100671.11;1663522;85;21053;-85
2022/05/14 06:58:32;;;;;;;3.40;1.95;;;;;;;15.60;100.00;100675.98;1663605;85;21098;-87
2022/05/14 07:00:59;;;;;;;7.65;2.42;;;;;;;15.62;100.00;100678.42;1657744;85;21163;-86
2022/05/14 07:08:56;;;;;;;6.53;2.45;;;;;;;15.50;100.00;100666.63;1644350;86;21098;-87
2022/05/14 07:11:22;;;;;;;5.92;2.77;;;;;;;15.50;100.00;100666.63;1663865;85;21275;-86
2022/05/14 07:13:51;;;;;;;11.40;2.60;;;;;;;15.58;100.00;100693.67;1663496;85;21032;-87
2022/05/14 07:16:17;;;;;;;5.95;2.95;;;;;;;15.57;100.00;100697.50;1663790;85;20980;-88
2022/05/14 07:18:43;;;;;;;5.65;2.70;;;;;;;15.57;100.00;100697.50;1663555;85;20911;-88
2022/05/14 07:21:09;;;;;;;6.08;2.67;;;;;;;15.46;100.00;100687.30;1663677;85;21124;-87
2022/05/14 07:23:35;;;;;;;6.42;2.58;;;;;;;15.46;100.00;100687.30;1663572;85;21638;-88
2022/05/14 07:26:05;;;;;;;11.38;2.80;;;;;;;15.58;100.00;100711.33;1663709;85;21056;-88
2022/05/14 07:31:02;;;;;;;6.22;2.60;;;;;;;15.41;100.00;100699.56;1583539;90;21038;-88
2022/05/14 07:33:30;;;;;;;5.92;2.33;;;;;;;15.37;100.00;100695.27;1583738;90;21074;-88
2022/05/14 07:36:03;;;;;;;6.72;2.40;;;;;;;15.34;100.00;100697.20;1583701;89;21109;-87
2022/05/14 07:38:32;;;;;;;4.22;2.10;;;;;;;15.29;100.00;100693.73;1580646;90;21038;-87
2022/05/14 07:40:59;;;;;;;8.43;2.45;;;;;;;15.25;100.00;100688.64;1582777;90;21089;-87
2022/05/14 07:43:30;;;;;;;9.90;2.70;;;;;;;15.22;100.00;100688.11;1584003;90;21589;-87
2022/05/14 07:46:01;;;;;;;9.48;2.90;;;;;;;15.22;100.00;100688.11;1583722;90;21073;-87
2022/05/14 07:48:35;;;;;;;7.65;2.55;;;;;;;15.22;100.00;100685.95;1584140;90;21099;-88
2022/05/14 07:51:05;;;;;;;8.98;2.47;;;;;;;15.22;100.00;100687.30;1581611;90;21268;-87
2022/05/14 07:53:31;;;;;;;10.03;2.60;;;;;;;15.27;100.00;100681.83;1583880;90;21694;-90
2022/05/14 07:56:03;;;;;;;6.22;2.40;;;;;;;15.33;100.00;100680.66;1581620;90;21085;-87
2022/05/14 07:58:29;;;;;;;8.58;2.60;;;;;;;15.38;100.00;100681.14;1590754;90;21128;-88
2022/05/14 08:00:56;;;;;;;5.70;2.12;;;;;;;15.53;100.00;100689.66;1590756;90;21045;-90
2022/05/14 08:03:24;;;;;;;6.37;2.40;;;;;;;15.59;100.00;100695.31;1590770;90;21163;-90
2022/05/14 08:05:55;;;;;;;9.75;2.72;;;;;;;15.59;100.00;100695.31;1590330;90;21050;-90
2022/05/14 08:08:22;;;;;;;10.45;3.27;;;;;;;15.55;100.00;100695.05;1571859;90;21030;-89
2022/05/14 08:10:49;;;;;;;7.90;2.60;;;;;;;15.59;100.00;100691.23;1592809;90;21093;-89
2022/05/14 08:13:20;;;;;;;7.50;2.85;;;;;;;15.69;100.00;100698.47;1592409;90;21081;-91
2022/05/14 08:15:48;;;;;;;7.42;2.65;;;;;;;15.76;100.00;100702.42;1592669;90;21343;-91
2022/05/14 08:18:15;;;;;;;6.92;2.70;;;;;;;15.91;100.00;100698.70;1592597;90;21124;-91
2022/05/14 08:20:44;;;;;;;5.60;2.47;;;;;;;16.01;100.00;100697.21;1592682;90;21168;-89
2022/05/14 08:25:59;;;;;;;6.60;2.47;;;;;;;16.09;100.00;100695.75;1591986;88;21044;-90
2022/05/14 08:28:26;;;;;;;13.98;2.37;;;;;;;16.10;100.00;100690.56;1648527;86;21456;-91
2022/05/14 08:30:52;;;;;;;5.45;2.60;;;;;;;16.16;100.00;100692.09;1635172;86;21551;-91
2022/05/14 08:33:19;;;;;;;3.98;2.30;;;;;;;16.05;100.00;100664.80;1634896;86;21532;-91
2022/05/14 08:35:47;;;;;;;4.90;2.22;;;;;;;16.30;100.00;100696.25;1657644;85;21047;-91
2022/05/14 08:38:16;;;;;;;4.87;2.30;;;;;;;16.29;100.00;100700.05;1659894;86;20975;-91
2022/05/14 08:40:55;;;;;;;7.83;2.50;;;;;;;16.32;100.00;100704.38;1637591;86;21254;-89
2022/05/14 08:43:29;;;;;;;10.98;2.15;;;;;;;16.33;100.00;100707.34;1657558;86;21027;-94
2022/05/14 08:45:55;;;;;;;7.47;2.65;;;;;;;16.27;100.00;100714.52;1604144;89;21149;-93
2022/05/14 08:48:33;;;;;;;9.78;2.70;;;;;;;16.18;100.00;100712.19;1606908;89;20986;-91
2022/05/14 08:51:19;;;;;;;10.58;2.50;;;;;;;16.14;100.00;100718.77;1606764;89;21085;-90
2022/05/14 08:53:48;;;;;;;10.05;2.98;;;;;;;16.12;100.00;100713.64;1606674;88;21164;-90
2022/05/14 08:56:26;;;;;;;6.17;2.62;;;;;;;16.04;100.00;100717.56;1606898;89;21026;-88
2022/05/14 08:59:42;;;;;;;8.33;3.08;;;;;;;15.98;100.00;100704.59;1607212;89;21050;-94
2022/05/14 09:02:31;;;;;;;11.30;3.05;;;;;;;15.94;100.00;100698.66;1606847;88;21559;-93
2022/05/14 09:05:08;;;;;;;7.70;2.62;;;;;;;15.97;100.00;100693.47;1633036;85;21015;-93
2022/05/14 09:07:36;;;;;;;7.90;2.90;;;;;;;16.06;100.00;100685.44;1688654;85;21330;-93
2022/05/14 09:10:08;;;;;;;7.65;2.27;;;;;;;16.13;100.00;100673.66;1688677;85;21107;-92
2022/05/14 09:12:39;;;;;;;7.55;2.42;;;;;;;16.17;100.00;100665.71;1688633;85;21082;-93
2022/05/14 09:15:14;;;;;;;9.88;2.55;;;;;;;16.28;100.00;100662.54;1685113;85;21047;-92
2022/05/14 09:17:40;;;;;;;8.60;2.87;;;;;;;16.46;100.00;100654.64;1686062;85;21571;-90
2022/05/14 09:20:09;;;;;;;6.42;2.60;;;;;;;16.76;100.00;100649.25;1688686;85;21056;-90
2022/05/14 09:22:43;;;;;;;7.37;2.40;;;;;;;16.99;100.00;100637.94;1692365;83;21027;-92
2022/05/14 09:25:32;;;;;;;9.13;2.42;;;;;;;17.18;100.00;100629.12;1712853;83;21047;-89
2022/05/14 09:28:03;;;;;;;7.58;2.52;;;;;;;17.40;100.00;100634.41;1718483;83;21082;-89
2022/05/14 09:30:43;;;;;;;6.17;2.45;;;;;;;17.45;100.00;100623.41;1718960;83;21042;-89
2022/05/14 09:33:18;;;;;;;5.90;2.33;;;;;;;17.48;100.00;100621.44;1719048;83;21130;-89
2022/05/14 09:35:49;;;;;;;7.28;2.92;;;;;;;17.52;100.00;100626.51;1640556;84;21040;-89
2022/05/14 09:38:22;;;;;;;8.95;2.40;;;;;;;17.66;100.00;100623.20;1629018;87;21641;-90
2022/05/14 09:40:49;;;;;;;;;;;;;;;17.84;100.00;100619.30;1637098;87;21533;-88
2022/05/14 09:43:21;;;;;;;9.73;3.30;;;;;;;17.85;100.00;100616.81;1634574;87;20187;-89
2022/05/14 09:46:04;;;;;;;11.80;3.20;;;;;;;17.99;100.00;100609.96;1634732;87;21357;-88
2022/05/14 09:48:49;;;;;;;7.53;2.92;;;;;;;18.09;100.00;100609.73;1561129;90;21552;-90
2022/05/14 09:51:39;;;;;;;6.95;3.42;;;;;;;18.10;100.00;100596.33;1561060;91;21105;-88
2022/05/14 09:54:41;;;;;;;8.80;2.83;;;;;;;18.08;100.00;100589.80;1440574;99;21157;-88
2022/05/14 09:57:33;;;;;;;5.92;2.67;;;;;;;18.14;100.00;100587.77;1375616;103;21206;-87
2022/05/14 10:00:25;;;;;;;7.08;2.70;;;;;;;18.30;100.00;100584.11;1376031;104;21195;-85
2022/05/14 10:03:27;;;;;;;4.17;2.17;;;;;;;18.52;100.00;100581.89;1375793;102;21118;-87
2022/05/14 10:06:02;;;;;;;3.62;1.90;;;;;;;18.68;100.00;100579.02;1338795;106;21127;-86
2022/05/14 10:08:51;;;;;;;5.65;1.80;;;;;;;18.76;100.00;100570.06;1338736;107;21690;-85
2022/05/14 10:11:44;;;;;;;3.42;1.42;;;;;;;18.88;100.00;100569.45;1336614;107;21679;-85
2022/05/14 10:14:27;;;;;;;3.40;1.45;;;;;;;18.94;100.00;100561.94;1343096;106;22023;-84
2022/05/14 10:17:37;;;;;;;5.28;3.02;;;;;;;19.00;100.00;100565.59;1344434;106;21188;-85
2022/05/14 10:20:08;;;;;;;7.42;2.95;;;;;;;19.15;100.00;100566.24;1324743;108;21183;-85
2022/05/14 10:28:57;;;;;;;3.62;1.72;;;;;;;19.90;100.00;100554.10;1311839;109;21213;-84
2022/05/14 10:31:44;;;;;;;2.80;1.50;;;;;;;20.29;100.00;100561.83;1356056;104;21157;-85
2022/05/14 10:34:21;;;;;;;2.35;1.50;;;;;;;20.63;100.00;100563.70;1368232;104;21229;-85
2022/05/14 10:36:56;;;;;;;5.25;1.72;;;;;;;20.62;100.00;100555.83;1370096;103;21620;-86
2022/05/14 10:39:36;;;;;;;3.52;1.50;;;;;;;20.70;100.00;100560.44;1390844;101;21179;-86
2022/05/14 10:42:16;;;;;;;3.95;1.57;;;;;;;20.71;100.00;100555.22;1401306;102;21345;-86
2022/05/14 10:45:12;;;;;;;4.75;1.57;;;;;;;20.61;100.00;100545.98;1411935;98;21660;-86
2022/05/14 10:47:44;;;;;;;4.60;1.72;;;;;;;20.34;100.00;100541.14;1442928;99;21085;-86
2022/05/14 10:50:16;;;;;;;3.05;1.27;;;;;;;20.22;100.00;100539.65;1441346;99;21618;-86
2022/05/14 10:52:45;;;;;;;3.65;1.40;;;;;;;20.22;100.00;100535.55;1453602;95;21113;-86
2022/05/14 10:55:18;;;;;;;3.02;1.00;;;;;;;20.23;100.00;100531.67;1509004;94;21109;-85
2022/05/14 10:57:49;;;;;;;3.87;1.45;;;;;;;20.16;100.00;100530.01;1509115;94;21022;-86
2022/05/14 11:00:21;;;;;;;3.58;1.35;;;;;;;20.11;100.00;100530.97;1506141;95;21062;-87
2022/05/14 11:03:05;;;;;;;1.60;1.27;;;;;;;20.24;100.00;100533.86;1490774;94;21155;-86
2022/05/14 11:05:51;;;;;;;3.15;1.60;;;;;;;20.33;100.00;100534.06;1473247;95;21030;-86
2022/05/14 11:08:35;;;;;;;2.72;1.75;;;;;;;20.37;100.00;100536.38;1500651;95;21198;-86
2022/05/14 11:11:09;;;;;;;3.95;2.30;;;;;;;20.29;100.00;100526.25;1500668;95;21174;-86
2022/05/14 11:13:35;;;;;;;4.37;1.98;;;;;;;20.24;100.00;100534.66;1502076;95;21479;-85
2022/05/14 11:16:07;;;;;;;6.28;2.12;;;;;;;20.19;100.00;100532.89;1487167;96;21092;-87
2022/05/14 11:18:50;;;;;;;4.00;1.67;;;;;;;20.29;100.00;100531.73;1487138;95;21075;-87
2022/05/14 11:21:18;;;;;;;5.25;1.98;;;;;;;20.36;100.00;100528.51;1513947;93;23328;-85
2022/05/14 11:23:55;;;;;;;9.05;2.20;;;;;;;20.37;100.00;100522.69;1513803;93;21022;-86
2022/05/14 11:26:22;;;;;;;2.55;2.00;;;;;;;20.30;100.00;100524.34;1487217;96;21629;-86
2022/05/14 11:29:14;;;;;;;7.30;2.10;;;;;;;20.26;100.00;100524.17;1486931;95;21152;-85
2022/05/14 11:31:54;;;;;;;6.20;1.50;;;;;;;20.24;100.00;100528.39;1425866;100;21162;-86
2022/05/14 11:34:25;;;;;;;3.80;1.80;;;;;;;19.91;100.00;100528.37;1425949;100;22139;-86
2022/05/14 11:36:59;;;;;;;6.87;1.87;;;;;;;20.01;100.00;100526.42;1422409;99;21087;-87
2022/05/14 11:39:38;;;;;;;3.83;1.67;;;;;;;20.07;100.00;100534.70;1423472;97;21799;-87
2022/05/14 11:42:25;;;;;;;4.20;1.67;;;;;;;20.19;100.00;100536.20;1478159;94;21600;-87
2022/05/14 11:45:05;;;;;;;7.70;1.75;;;;;;;20.16;100.00;100533.55;1512390;93;21636;-87
2022/05/14 11:47:56;;;;;;;3.22;1.40;;;;;;;20.15;100.00;100531.95;1486046;96;22197;-88
2022/05/14 11:50:28;;;;;;;4.50;1.50;;;;;;;20.20;100.00;100536.42;1486967;96;21401;-87
2022/05/14 11:53:11;;;;;;;3.05;1.60;;;;;;;20.17;100.00;100536.51;1484814;96;21681;-86
2022/05/14 11:55:45;;;;;;;6.50;1.98;;;;;;;20.15;100.00;100537.42;1487760;95;21543;-86
2022/05/14 11:58:17;;;;;;;5.03;1.87;;;;;;;20.14;100.00;100532.25;1487065;96;21123;-85
2022/05/14 12:00:45;;;;;;;4.80;1.40;;;;;;;20.13;100.00;100525.19;1484925;96;21131;-86
2022/05/14 12:03:37;;;;;;;6.17;1.70;;;;;;;20.18;100.00;100526.39;1462830;97;21084;-86
2022/05/14 12:06:21;;;;;;;3.30;1.67;;;;;;;20.34;100.00;100528.82;1462380;98;21715;-86
2022/05/14 12:08:52;;;;;;;4.90;1.85;;;;;;;20.57;100.00;100532.72;1462334;98;21128;-85
2022/05/14 12:11:41;;;;;;;7.00;1.80;;;;;;;20.87;100.00;100526.12;1462565;98;21096;-85
2022/05/14 12:14:21;;;;;;;5.53;1.75;;;;;;;21.13;100.00;100521.63;1462180;98;21365;-85
2022/05/14 12:16:52;;;;;;;4.78;1.80;;;;;;;21.39;100.00;100514.05;1468810;96;21132;-85
2022/05/14 12:19:25;;;;;;;6.03;1.90;;;;;;;21.36;100.00;100516.09;1513820;92;21083;-85
2022/05/14 12:21:59;;;;;;;2.95;1.87;;;;;;;21.35;100.00;100510.32;1547100;92;21101;-85
2022/05/14 12:24:30;;;;;;;5.00;2.10;;;;;;;21.37;100.00;100512.77;1517280;94;21868;-82
2022/05/14 12:26:57;;;;;;;4.12;1.87;;;;;;;21.26;100.00;100505.48;1535010;90;21062;-84
2022/05/14 12:29:31;;;;;;;4.97;1.82;;;;;;;21.22;100.00;100508.09;1583072;90;21045;-84